Pola de Lena, Spain
Current Conditions -  °F | °C
As of 8:30 AM on Thursday 18 Dec 2014 (Local Time) from LEAS Reporting Station
Broken Clouds Broken Clouds  
Wind Chill:   Ceiling: 3400
Heat Index:   Visibility: 6mi
Dew Point:   Wind: 15mph
Humidity: 76%   Direction: 230°SW
Pressure: 30.42"   Gusts: NA
Location:  43.16°N, 5.83°W
Report Text: LEAS 180730Z 23013KT 9999 BKN034 08/04 Q1030 NOSIG
Loading
Personal Weather Stations






























Interactive Weather Map New forecast layout! Learn more

10-Day Weather Forecast

Advertisements
Track Severe Weather on mobile